Time;durP1;ratioP1;P1;durP2;ratioP2;P2;SDS_P1;SDS_P2;PMS_P1;PMS_P2;Temp;Humidity;BMP_temperature;BMP_pressure;BME280_temperature;BME280_humidity;BME280_pressure;Samples;Min_cycle;Max_cycle;Signal;HPM_P1;HPM_P2
2022/03/19 00:00:22;;;;;;;71.10;64.00;;;6.60;99.90;;;;;;5034936;28;20693;-85
2022/03/19 00:02:49;;;;;;;69.43;62.63;;;6.40;99.90;;;;;;5036312;28;20654;-85
2022/03/19 00:05:17;;;;;;;73.70;66.73;;;6.10;99.90;;;;;;5037755;28;20629;-86
2022/03/19 00:07:45;;;;;;;65.47;58.97;;;6.40;99.90;;;;;;5038455;28;20622;-85
2022/03/19 00:10:15;;;;;;;74.67;68.03;;;6.60;99.90;;;;;;5039125;28;20690;-88
2022/03/19 00:12:42;;;;;;;69.10;61.80;;;6.40;99.90;;;;;;5043086;28;20670;-85
2022/03/19 00:15:13;;;;;;;70.60;63.73;;;5.90;99.90;;;;;;5037974;28;20622;-85
2022/03/19 00:17:40;;;;;;;71.80;65.20;;;6.30;99.90;;;;;;5040575;28;20695;-86
2022/03/19 00:20:07;;;;;;;69.97;63.80;;;6.30;99.90;;;;;;5040160;28;20681;-87
2022/03/19 00:22:37;;;;;;;70.87;64.83;;;6.20;99.90;;;;;;5043416;28;20669;-86
2022/03/19 00:25:05;;;;;;;71.57;65.50;;;6.00;99.90;;;;;;5049498;28;20721;-86
2022/03/19 00:27:32;;;;;;;65.97;59.43;;;6.30;99.90;;;;;;5047621;28;20634;-85
2022/03/19 00:29:59;;;;;;;64.77;58.67;;;6.20;99.90;;;;;;5041507;28;20646;-85
2022/03/19 00:32:27;;;;;;;65.50;59.13;;;6.10;99.90;;;;;;5036707;28;20694;-87
2022/03/19 00:34:54;;;;;;;66.70;60.17;;;5.90;99.90;;;;;;5045260;28;20626;-87
2022/03/19 00:37:23;;;;;;;66.93;60.30;;;5.70;99.90;;;;;;5039117;28;20640;-86
2022/03/19 00:39:52;;;;;;;66.33;59.87;;;5.90;99.90;;;;;;5040281;28;20716;-85
2022/03/19 00:42:19;;;;;;;67.40;60.83;;;5.80;99.90;;;;;;5038170;28;20634;-86
2022/03/19 00:44:48;;;;;;;68.57;61.90;;;5.80;99.90;;;;;;5040235;28;20657;-86
2022/03/19 00:47:15;;;;;;;69.43;62.87;;;6.20;99.90;;;;;;5044555;28;20619;-86
2022/03/19 00:49:42;;;;;;;70.00;63.90;;;6.00;99.90;;;;;;5032255;28;21017;-85
2022/03/19 00:52:09;;;;;;;63.40;57.30;;;5.90;99.90;;;;;;5038906;28;20964;-86
2022/03/19 00:54:36;;;;;;;68.13;61.90;;;5.90;99.90;;;;;;5046398;28;20619;-86
2022/03/19 00:57:04;;;;;;;69.57;63.40;;;5.90;99.90;;;;;;5042903;28;20629;-86
2022/03/19 00:59:31;;;;;;;64.27;58.23;;;6.30;99.90;;;;;;5041155;28;21043;-85
2022/03/19 01:01:58;;;;;;;64.83;57.93;;;6.00;99.90;;;;;;5042149;28;20630;-86
2022/03/19 01:04:25;;;;;;;64.60;57.90;;;6.40;99.90;;;;;;5041566;28;20634;-87
2022/03/19 01:06:52;;;;;;;63.87;57.80;;;6.10;99.90;;;;;;5037898;28;20681;-85
2022/03/19 01:09:19;;;;;;;65.57;59.50;;;5.70;99.90;;;;;;5032651;28;20615;-85
2022/03/19 01:11:47;;;;;;;65.40;58.93;;;5.60;99.90;;;;;;5044824;28;20629;-86
2022/03/19 01:14:16;;;;;;;64.43;58.13;;;5.70;99.90;;;;;;5037339;28;20611;-86
2022/03/19 01:16:43;;;;;;;64.77;58.53;;;6.20;99.90;;;;;;5038262;28;21017;-87
2022/03/19 01:19:10;;;;;;;63.73;57.57;;;6.00;99.90;;;;;;5034007;28;20782;-87
2022/03/19 01:21:37;;;;;;;63.60;57.50;;;6.00;99.90;;;;;;5036574;28;20626;-86
2022/03/19 01:24:06;;;;;;;65.37;59.27;;;5.50;99.90;;;;;;5039380;28;20721;-86
2022/03/19 01:26:33;;;;;;;63.33;57.30;;;6.00;99.90;;;;;;5036882;28;20629;-85
2022/03/19 01:29:00;;;;;;;62.10;56.10;;;6.10;99.90;;;;;;5036521;28;20646;-85
2022/03/19 01:31:28;;;;;;;63.67;57.87;;;5.80;99.90;;;;;;5037459;28;20646;-85
2022/03/19 01:34:02;;;;;;;60.97;55.13;;;5.60;99.90;;;;;;5046545;28;20635;-84
2022/03/19 01:36:29;;;;;;;61.87;55.77;;;5.80;99.90;;;;;;5043212;28;20619;-85
2022/03/19 01:38:57;;;;;;;62.30;56.40;;;5.50;99.90;;;;;;5041234;28;20619;-86
2022/03/19 01:41:24;;;;;;;61.20;55.37;;;5.50;99.90;;;;;;5039877;28;20685;-86
2022/03/19 01:43:51;;;;;;;63.97;57.63;;;6.20;99.90;;;;;;5038240;28;20626;-87
2022/03/19 01:46:18;;;;;;;63.10;57.13;;;5.60;99.90;;;;;;5034006;28;20726;-86
2022/03/19 01:48:47;;;;;;;65.03;58.77;;;6.20;99.90;;;;;;5039764;28;20630;-85
2022/03/19 01:51:14;;;;;;;66.20;60.60;;;5.50;99.90;;;;;;5038252;28;20642;-86
2022/03/19 01:53:41;;;;;;;59.23;53.63;;;6.10;99.90;;;;;;5045482;28;21190;-86
2022/03/19 01:56:09;;;;;;;61.10;55.30;;;6.00;99.90;;;;;;5040225;28;20623;-86
2022/03/19 01:58:37;;;;;;;60.63;55.00;;;5.40;99.90;;;;;;5044657;28;20610;-86
2022/03/19 02:01:04;;;;;;;60.17;54.33;;;5.90;99.90;;;;;;5041841;28;21093;-85
2022/03/19 02:03:31;;;;;;;58.03;52.80;;;5.40;99.90;;;;;;5039638;28;20659;-84
2022/03/19 02:06:01;;;;;;;65.43;59.67;;;5.80;99.90;;;;;;5039169;28;20634;-87
2022/03/19 02:08:29;;;;;;;58.93;53.30;;;5.90;99.90;;;;;;5036114;28;20709;-87
2022/03/19 02:10:56;;;;;;;58.73;52.93;;;5.90;99.90;;;;;;5039250;28;20642;-85
2022/03/19 02:13:24;;;;;;;63.60;58.10;;;5.80;99.90;;;;;;5043761;28;21203;-86
2022/03/19 02:15:50;;;;;;;62.60;57.30;;;5.40;99.90;;;;;;5037032;28;20625;-84
2022/03/19 02:18:17;;;;;;;61.00;55.07;;;5.40;99.90;;;;;;5034189;28;20621;-84
2022/03/19 02:20:45;;;;;;;59.13;53.47;;;5.50;99.90;;;;;;5035627;28;20679;-85
2022/03/19 02:26:07;;;;;;;60.40;54.67;;;5.60;99.90;;;;;;5032328;28;20976;-86
2022/03/19 02:28:33;;;;;;;60.57;54.37;;;5.20;99.90;;;;;;5032944;28;20638;-86
2022/03/19 02:31:00;;;;;;;57.90;52.30;;;5.80;99.90;;;;;;5033916;28;20665;-85
2022/03/19 02:33:27;;;;;;;58.10;52.80;;;5.40;99.90;;;;;;5029759;28;20638;-85
2022/03/19 02:35:54;;;;;;;58.70;53.10;;;5.80;99.90;;;;;;5035159;28;21001;-85
2022/03/19 02:38:22;;;;;;;58.53;52.73;;;5.30;99.90;;;;;;5031951;28;20631;-84
2022/03/19 02:40:49;;;;;;;59.13;53.20;;;5.80;99.90;;;;;;5030573;28;20677;-84
2022/03/19 02:43:16;;;;;;;59.27;53.30;;;5.80;99.90;;;;;;5029660;28;20641;-84
2022/03/19 02:45:47;;;;;;;53.07;47.90;;;5.30;99.90;;;;;;5031191;28;20634;-85
2022/03/19 02:48:13;;;;;;;59.00;53.37;;;5.70;99.90;;;;;;5034357;28;20681;-84
2022/03/19 02:50:40;;;;;;;58.13;52.50;;;5.80;99.90;;;;;;5031841;28;20654;-85
2022/03/19 02:53:08;;;;;;;57.67;51.90;;;5.60;99.90;;;;;;5029920;28;20638;-85
2022/03/19 02:55:38;;;;;;;58.00;52.50;;;5.50;99.90;;;;;;5032037;28;20611;-85
2022/03/19 02:58:07;;;;;;;57.00;51.30;;;5.60;99.90;;;;;;5029131;28;20626;-85
2022/03/19 03:00:34;;;;;;;56.73;50.90;;;5.20;99.90;;;;;;5029968;28;20777;-85
2022/03/19 03:03:01;;;;;;;59.00;53.40;;;5.60;99.90;;;;;;5028440;28;20649;-85
2022/03/19 03:05:28;;;;;;;62.00;56.50;;;5.70;99.90;;;;;;5026692;28;20646;-85
2022/03/19 03:07:55;;;;;;;57.63;52.17;;;5.60;99.90;;;;;;5027977;28;20632;-84
2022/03/19 03:10:22;;;;;;;58.70;52.43;;;5.30;99.90;;;;;;5030173;28;20654;-85
2022/03/19 03:12:50;;;;;;;55.17;49.83;;;5.30;99.90;;;;;;5030148;28;20614;-84
2022/03/19 03:15:17;;;;;;;58.10;52.60;;;5.50;99.90;;;;;;5032316;28;20630;-84
2022/03/19 03:17:44;;;;;;;56.80;51.50;;;5.60;99.90;;;;;;5031552;28;20642;-85
2022/03/19 03:20:11;;;;;;;57.90;52.30;;;5.80;99.90;;;;;;5031231;28;20693;-85
2022/03/19 03:22:42;;;;;;;54.47;49.20;;;5.60;99.90;;;;;;5033754;28;20641;-84
2022/03/19 03:25:09;;;;;;;55.50;50.00;;;5.00;99.90;;;;;;5031126;28;21361;-84
2022/03/19 03:27:36;;;;;;;56.80;51.00;;;5.50;99.90;;;;;;5033144;28;20633;-84
2022/03/19 03:30:05;;;;;;;57.43;52.10;;;5.10;99.90;;;;;;5028775;28;20668;-84
2022/03/19 03:32:31;;;;;;;58.17;52.20;;;5.60;99.90;;;;;;5028696;28;20662;-85
2022/03/19 03:34:58;;;;;;;54.70;49.03;;;5.70;99.90;;;;;;5032959;28;20626;-85
2022/03/19 03:37:25;;;;;;;55.93;50.53;;;5.60;99.90;;;;;;5030207;28;20611;-85
2022/03/19 03:39:52;;;;;;;60.00;54.80;;;5.10;99.90;;;;;;5033522;28;20663;-85
2022/03/19 03:42:18;;;;;;;55.93;50.33;;;5.50;99.90;;;;;;5034479;28;20627;-85
2022/03/19 03:44:45;;;;;;;56.60;51.20;;;5.50;99.90;;;;;;5030208;28;20664;-84
2022/03/19 03:47:13;;;;;;;56.13;50.63;;;4.90;99.90;;;;;;5031065;28;20638;-85
2022/03/19 03:49:40;;;;;;;58.27;52.50;;;5.40;99.90;;;;;;5033130;28;20661;-85
2022/03/19 03:52:08;;;;;;;58.27;52.67;;;5.30;99.90;;;;;;5021217;28;20673;-86
2022/03/19 03:54:35;;;;;;;57.30;51.67;;;5.30;99.90;;;;;;5029184;28;20685;-85
2022/03/19 03:57:02;;;;;;;56.87;51.13;;;5.30;99.90;;;;;;5028146;28;20644;-84
2022/03/19 03:59:30;;;;;;;56.53;51.03;;;5.40;99.90;;;;;;5032491;28;20642;-85
2022/03/19 04:01:56;;;;;;;54.83;49.53;;;5.40;99.90;;;;;;5036739;28;20653;-84
2022/03/19 04:04:25;;;;;;;56.60;50.97;;;5.00;99.90;;;;;;5033639;28;20621;-84
2022/03/19 04:06:52;;;;;;;55.13;49.70;;;4.90;99.90;;;;;;5033728;28;20622;-85
2022/03/19 04:09:19;;;;;;;55.90;50.57;;;5.30;99.90;;;;;;5040207;28;20756;-85
2022/03/19 04:11:46;;;;;;;56.63;50.70;;;5.20;99.90;;;;;;5035819;28;20621;-85
2022/03/19 04:14:12;;;;;;;54.23;48.93;;;5.30;99.90;;;;;;5032763;28;20630;-85
2022/03/19 04:16:39;;;;;;;52.93;48.03;;;5.20;99.90;;;;;;5039123;28;20623;-85
2022/03/19 04:19:06;;;;;;;56.50;50.80;;;5.00;99.90;;;;;;5032023;28;20634;-85
2022/03/19 04:21:34;;;;;;;54.80;49.40;;;5.00;99.90;;;;;;5037603;28;20684;-84
2022/03/19 04:24:01;;;;;;;54.30;48.90;;;5.30;99.90;;;;;;5031291;28;20614;-85
2022/03/19 04:26:27;;;;;;;52.87;47.73;;;5.20;99.90;;;;;;5045431;28;20653;-85
2022/03/19 04:28:54;;;;;;;54.07;48.77;;;4.90;99.90;;;;;;5034809;28;20637;-85
2022/03/19 04:31:21;;;;;;;57.87;52.93;;;4.80;99.90;;;;;;5036030;28;20650;-85
2022/03/19 04:33:48;;;;;;;55.70;49.57;;;4.80;99.90;;;;;;5038984;28;20620;-85
2022/03/19 04:36:35;;;;;;;53.17;47.93;;;5.30;99.90;;;;;;5031511;28;20985;-85
2022/03/19 04:39:06;;;;;;;55.60;49.67;;;5.20;99.90;;;;;;5035154;28;20586;-85
2022/03/19 04:41:34;;;;;;;53.03;47.83;;;5.40;99.90;;;;;;5035639;28;21267;-85
2022/03/19 04:44:01;;;;;;;54.27;48.73;;;5.20;99.90;;;;;;5038930;28;20635;-85
2022/03/19 04:46:28;;;;;;;55.03;49.23;;;5.10;99.90;;;;;;5035106;28;21175;-85
2022/03/19 04:48:56;;;;;;;54.37;49.13;;;5.20;99.90;;;;;;5035614;28;20631;-85
2022/03/19 04:51:29;;;;;;;53.53;48.10;;;5.40;99.90;;;;;;5038049;28;20648;-85
2022/03/19 04:53:57;;;;;;;56.90;51.00;;;4.80;99.90;;;;;;5039732;28;20643;-85
2022/03/19 04:56:27;;;;;;;51.97;46.87;;;5.40;99.90;;;;;;5038745;28;20616;-85
2022/03/19 04:58:55;;;;;;;53.40;48.40;;;4.80;99.90;;;;;;5032572;28;20694;-84
2022/03/19 05:01:25;;;;;;;57.63;51.90;;;5.10;99.90;;;;;;5035587;28;20682;-85
2022/03/19 05:03:51;;;;;;;53.90;47.13;;;5.00;99.90;;;;;;5028196;28;20637;-84
2022/03/19 05:06:19;;;;;;;52.17;46.83;;;5.30;99.90;;;;;;5031767;28;20619;-86
2022/03/19 05:08:45;;;;;;;51.80;46.67;;;4.80;99.90;;;;;;5029810;28;20718;-85
2022/03/19 05:11:15;;;;;;;51.17;45.67;;;5.10;99.90;;;;;;5031359;28;20660;-84
2022/03/19 05:13:44;;;;;;;51.13;46.10;;;5.10;99.90;;;;;;5029418;28;20714;-84
2022/03/19 05:16:11;;;;;;;54.57;49.00;;;4.70;99.90;;;;;;5030325;28;20637;-84
2022/03/19 05:18:38;;;;;;;52.03;46.63;;;4.90;99.90;;;;;;5038664;28;20657;-83
2022/03/19 05:21:05;;;;;;;52.60;47.40;;;5.00;99.90;;;;;;5035080;28;20673;-85
2022/03/19 05:23:32;;;;;;;51.93;46.70;;;5.00;99.90;;;;;;5036349;28;20630;-84
2022/03/19 05:25:59;;;;;;;53.20;47.50;;;4.70;99.90;;;;;;5034079;28;20629;-84
2022/03/19 05:28:26;;;;;;;50.37;45.40;;;5.00;99.90;;;;;;5026991;28;21029;-85
2022/03/19 05:30:57;;;;;;;50.80;45.57;;;5.10;99.90;;;;;;5035366;28;20637;-84
2022/03/19 05:34:29;;;;;;;52.17;46.93;;;4.60;99.90;;;;;;5034902;28;20662;-85
2022/03/19 05:36:13;;;;;;;49.80;45.00;;;5.00;99.90;;;;;;5030532;28;21135;-85
2022/03/19 05:38:39;;;;;;;52.20;47.23;;;5.10;99.90;;;;;;5035892;28;21016;-85
2022/03/19 05:41:07;;;;;;;54.33;46.40;;;5.10;99.90;;;;;;5031857;28;20666;-86
2022/03/19 05:43:34;;;;;;;52.83;47.50;;;5.20;99.90;;;;;;5036923;28;20590;-86
2022/03/19 05:46:03;;;;;;;52.80;47.20;;;5.10;99.90;;;;;;5035376;28;20629;-86
2022/03/19 05:48:30;;;;;;;49.00;44.40;;;4.50;99.90;;;;;;5035409;28;21092;-86
2022/03/19 05:50:58;;;;;;;52.77;47.27;;;5.10;99.90;;;;;;5032457;28;20591;-84
2022/03/19 05:53:25;;;;;;;53.33;47.93;;;4.90;99.90;;;;;;5028127;28;20680;-88
2022/03/19 05:55:53;;;;;;;50.70;45.30;;;4.90;99.90;;;;;;5030933;28;20629;-85
2022/03/19 05:58:20;;;;;;;51.03;45.77;;;4.80;99.90;;;;;;5028170;28;20650;-83
2022/03/19 06:00:47;;;;;;;53.37;48.17;;;5.20;99.90;;;;;;5028832;28;20658;-84
2022/03/19 06:03:15;;;;;;;49.50;44.50;;;4.60;99.90;;;;;;5034736;28;20614;-85
2022/03/19 06:05:42;;;;;;;53.43;45.13;;;5.10;99.90;;;;;;5032279;28;20629;-85
2022/03/19 06:08:09;;;;;;;49.47;44.63;;;5.00;99.90;;;;;;5028965;28;21011;-85
2022/03/19 06:10:36;;;;;;;48.10;43.20;;;5.10;99.90;;;;;;5029127;28;20640;-84
2022/03/19 06:13:03;;;;;;;48.77;44.23;;;5.30;99.90;;;;;;5033642;28;20637;-85
2022/03/19 06:15:30;;;;;;;47.73;43.23;;;5.40;99.90;;;;;;5029470;28;21183;-85
2022/03/19 06:17:57;;;;;;;51.30;46.40;;;5.10;99.90;;;;;;5030258;28;20653;-85
2022/03/19 06:20:25;;;;;;;49.43;44.70;;;5.20;99.90;;;;;;5029819;28;21118;-85
2022/03/19 06:22:52;;;;;;;50.67;45.90;;;5.40;99.90;;;;;;5032416;28;20669;-85
2022/03/19 06:25:19;;;;;;;48.73;44.27;;;4.90;99.90;;;;;;5022349;28;20611;-85
2022/03/19 06:27:46;;;;;;;49.60;44.53;;;5.50;99.90;;;;;;5032772;28;20667;-85
2022/03/19 06:30:13;;;;;;;47.23;42.73;;;5.00;99.90;;;;;;5032466;28;20650;-85
2022/03/19 06:32:41;;;;;;;50.90;45.60;;;5.50;99.90;;;;;;5035822;28;21215;-84
2022/03/19 06:35:09;;;;;;;51.40;46.43;;;5.20;99.90;;;;;;5035228;28;20642;-86
2022/03/19 06:37:37;;;;;;;50.00;45.03;;;5.70;99.90;;;;;;5036636;28;20650;-84
2022/03/19 06:40:06;;;;;;;49.80;44.97;;;5.10;99.90;;;;;;5033251;28;20662;-85
2022/03/19 06:42:33;;;;;;;51.40;46.10;;;5.50;99.90;;;;;;5056223;28;20656;-85
2022/03/19 06:45:00;;;;;;;49.10;44.10;;;5.90;99.90;;;;;;5058440;28;20641;-85
2022/03/19 06:47:27;;;;;;;47.80;43.20;;;5.40;99.90;;;;;;5055445;28;20602;-87
2022/03/19 06:49:53;;;;;;;49.60;44.77;;;5.20;99.90;;;;;;5035446;28;21211;-85
2022/03/19 06:52:21;;;;;;;47.23;42.70;;;5.40;99.90;;;;;;5029327;28;20626;-85
2022/03/19 06:54:49;;;;;;;47.43;42.90;;;5.60;99.90;;;;;;5037453;28;20705;-85
2022/03/19 06:57:15;;;;;;;49.10;44.40;;;5.60;99.90;;;;;;5034243;28;20687;-86
2022/03/19 06:59:42;;;;;;;48.60;43.73;;;5.70;99.90;;;;;;5033482;28;20607;-85
2022/03/19 07:02:09;;;;;;;46.97;42.33;;;6.30;99.90;;;;;;5027150;28;20665;-85
2022/03/19 07:04:36;;;;;;;45.93;41.60;;;6.20;99.90;;;;;;5035566;28;20622;-87
2022/03/19 07:07:03;;;;;;;44.03;39.93;;;5.80;99.90;;;;;;5047626;28;20626;-86
2022/03/19 07:09:30;;;;;;;47.23;42.83;;;6.40;99.90;;;;;;5039275;28;20661;-86
2022/03/19 07:11:58;;;;;;;45.20;40.90;;;6.20;99.90;;;;;;5032407;28;20618;-86
2022/03/19 07:14:25;;;;;;;44.13;39.93;;;6.60;99.90;;;;;;5028234;28;20626;-85
2022/03/19 07:16:52;;;;;;;44.43;40.10;;;6.50;99.90;;;;;;5032543;28;20657;-84
2022/03/19 07:19:19;;;;;;;43.60;39.43;;;6.50;99.90;;;;;;5030423;28;20697;-86
2022/03/19 07:21:46;;;;;;;41.97;38.27;;;6.70;99.90;;;;;;5033923;28;20666;-86
2022/03/19 07:24:12;;;;;;;42.17;37.77;;;6.60;99.90;;;;;;5029070;28;20623;-85
2022/03/19 07:26:39;;;;;;;43.30;38.93;;;6.60;99.90;;;;;;5034503;28;20631;-86
2022/03/19 07:29:07;;;;;;;41.30;37.80;;;7.00;99.90;;;;;;5030387;28;20662;-85
2022/03/19 07:31:34;;;;;;;41.87;37.93;;;6.70;99.90;;;;;;5035830;28;20622;-86
2022/03/19 07:34:01;;;;;;;40.97;37.30;;;7.10;99.90;;;;;;5035810;28;20629;-84
2022/03/19 07:36:28;;;;;;;39.77;36.00;;;7.00;99.90;;;;;;5036570;28;20626;-85
2022/03/19 07:38:55;;;;;;;41.40;37.40;;;7.60;99.90;;;;;;5031736;28;20700;-85
2022/03/19 07:44:08;;;;;;;38.87;35.30;;;7.10;99.90;;;;;;5036674;28;20659;-85
2022/03/19 07:46:35;;;;;;;37.27;33.67;;;7.50;99.90;;;;;;5035855;28;20632;-84
2022/03/19 07:49:02;;;;;;;39.80;36.17;;;7.40;99.90;;;;;;5038529;28;20664;-86
2022/03/19 07:51:30;;;;;;;36.17;32.87;;;7.40;99.90;;;;;;5032090;28;20591;-85
2022/03/19 07:53:57;;;;;;;37.67;34.17;;;8.00;99.90;;;;;;5033482;28;21236;-84
2022/03/19 07:56:24;;;;;;;36.83;33.10;;;7.90;99.90;;;;;;5032803;28;20618;-84
2022/03/19 07:58:51;;;;;;;36.63;32.73;;;7.60;99.90;;;;;;5032912;28;21345;-84
2022/03/19 08:01:21;;;;;;;35.93;32.43;;;7.70;99.90;;;;;;5040812;28;20642;-85
2022/03/19 08:03:50;;;;;;;37.07;33.57;;;8.10;99.90;;;;;;5037130;28;20614;-85
2022/03/19 08:06:17;;;;;;;36.53;33.13;;;8.20;99.90;;;;;;5036409;28;21004;-83
2022/03/19 08:08:45;;;;;;;32.80;29.07;;;8.70;99.90;;;;;;5039249;28;20638;-84
2022/03/19 08:11:14;;;;;;;33.23;30.00;;;8.50;99.90;;;;;;5036593;28;20630;-84
2022/03/19 08:13:41;;;;;;;33.37;29.87;;;9.20;97.80;;;;;;5044795;28;20631;-85
2022/03/19 08:16:09;;;;;;;32.33;29.30;;;8.70;95.20;;;;;;5039387;28;21150;-85
2022/03/19 08:18:38;;;;;;;32.27;29.10;;;8.80;96.20;;;;;;5041527;28;20709;-85
2022/03/19 08:21:05;;;;;;;31.67;28.53;;;9.30;94.90;;;;;;5040255;28;20677;-85
2022/03/19 08:23:35;;;;;;;30.83;27.77;;;8.70;94.40;;;;;;5043272;28;20606;-85
2022/03/19 08:26:03;;;;;;;31.07;27.87;;;9.10;94.60;;;;;;5041911;28;20629;-85
2022/03/19 08:28:29;;;;;;;31.07;27.60;;;8.80;94.50;;;;;;5038838;28;20717;-86
2022/03/19 08:30:58;;;;;;;29.07;26.37;;;9.00;94.10;;;;;;5035780;28;20640;-84
2022/03/19 08:33:26;;;;;;;32.40;29.27;;;8.70;93.50;;;;;;5036850;28;20637;-85
2022/03/19 08:35:56;;;;;;;30.67;27.77;;;8.80;93.50;;;;;;5037172;28;20633;-84
2022/03/19 08:41:07;;;;;;;30.40;27.50;;;8.60;93.90;;;;;;5029489;28;20617;-86
2022/03/19 08:43:34;;;;;;;28.03;25.13;;;9.00;93.40;;;;;;5032233;28;20674;-84
2022/03/19 08:46:01;;;;;;;27.63;24.63;;;9.40;92.70;;;;;;5028926;28;20632;-84
2022/03/19 08:48:28;;;;;;;30.70;27.70;;;9.30;92.40;;;;;;5033017;28;21535;-85
2022/03/19 08:51:39;;;;;;;28.60;25.90;;;9.30;92.10;;;;;;5035435;28;20625;-84
2022/03/19 08:53:43;;;;;;;27.40;24.70;;;9.20;92.80;;;;;;5028693;28;20710;-85
2022/03/19 08:56:10;;;;;;;30.33;27.10;;;8.90;92.00;;;;;;5035313;28;20634;-84
2022/03/19 08:58:37;;;;;;;28.37;25.57;;;9.10;92.30;;;;;;5030921;28;20664;-86
2022/03/19 09:01:04;;;;;;;28.63;25.47;;;9.70;92.10;;;;;;5034205;28;20624;-83
2022/03/19 09:03:32;;;;;;;30.17;27.03;;;9.80;91.60;;;;;;5033483;28;20650;-86
2022/03/19 09:06:01;;;;;;;29.33;26.53;;;9.80;91.30;;;;;;5028376;28;20627;-86
2022/03/19 09:08:28;;;;;;;30.60;27.37;;;9.00;91.90;;;;;;5034723;28;20669;-85
2022/03/19 09:10:57;;;;;;;30.43;27.30;;;9.40;92.20;;;;;;5036500;28;21208;-85
2022/03/19 09:13:24;;;;;;;29.80;26.60;;;9.80;92.50;;;;;;5033638;28;20623;-85
2022/03/19 09:15:51;;;;;;;30.63;27.53;;;9.90;90.80;;;;;;5033095;28;20978;-86
2022/03/19 09:18:26;;;;;;;31.60;28.40;;;10.20;90.80;;;;;;5040037;28;20656;-85
2022/03/19 09:20:53;;;;;;;31.63;28.07;;;9.90;91.40;;;;;;5042300;28;20666;-86
2022/03/19 09:23:21;;;;;;;29.63;26.47;;;10.50;90.40;;;;;;5047704;28;20654;-86
2022/03/19 09:25:48;;;;;;;31.90;28.60;;;9.70;91.20;;;;;;5034856;28;20626;-85
2022/03/19 09:28:15;;;;;;;29.77;26.77;;;10.00;90.50;;;;;;5031511;28;20658;-85
2022/03/19 09:30:42;;;;;;;33.77;30.27;;;10.20;90.50;;;;;;5036286;28;20638;-84
2022/03/19 09:33:08;;;;;;;32.13;28.97;;;10.30;90.50;;;;;;5015746;28;20626;-85
2022/03/19 09:35:36;;;;;;;30.67;27.27;;;10.10;90.50;;;;;;5032903;28;20635;-85
2022/03/19 09:38:03;;;;;;;32.23;29.13;;;10.50;90.30;;;;;;5034618;28;20638;-85
2022/03/19 09:40:31;;;;;;;33.00;29.70;;;10.60;89.50;;;;;;5028358;28;20619;-84
2022/03/19 09:42:58;;;;;;;32.63;28.77;;;10.80;90.30;;;;;;5031884;28;20793;-85
2022/03/19 09:45:28;;;;;;;30.40;27.57;;;10.40;90.10;;;;;;5037572;28;20615;-85
2022/03/19 09:47:56;;;;;;;31.07;27.97;;;11.00;90.00;;;;;;5033086;28;20662;-85
2022/03/19 09:50:26;;;;;;;31.60;28.50;;;11.20;89.30;;;;;;5032172;28;20622;-85
2022/03/19 09:52:55;;;;;;;31.90;28.80;;;11.10;89.00;;;;;;5028516;28;20635;-85
2022/03/19 09:55:26;;;;;;;31.80;28.73;;;11.20;89.60;;;;;;5028183;28;20642;-84
2022/03/19 09:57:55;;;;;;;31.60;28.33;;;11.60;88.60;;;;;;5027949;28;20716;-85
2022/03/19 10:00:24;;;;;;;29.63;26.90;;;11.80;86.70;;;;;;5036081;28;20642;-84
2022/03/19 10:02:54;;;;;;;28.63;25.77;;;11.80;85.10;;;;;;5030326;28;20670;-84
2022/03/19 10:10:51;;;;;;;31.70;28.70;;;12.00;83.30;;;;;;5027572;28;20622;-84
2022/03/19 10:13:19;;;;;;;29.87;26.87;;;12.00;85.30;;;;;;5032882;28;20635;-85
2022/03/19 10:15:46;;;;;;;29.60;26.63;;;12.70;81.40;;;;;;5033791;28;21952;-84
2022/03/19 10:18:13;;;;;;;31.73;28.57;;;12.30;82.60;;;;;;5033324;28;20655;-85
2022/03/19 10:20:40;;;;;;;32.33;23.83;;;13.00;81.00;;;;;;5036451;28;20634;-85
2022/03/19 10:23:06;;;;;;;30.87;27.77;;;13.70;80.90;;;;;;5034917;28;21457;-85
2022/03/19 10:25:36;;;;;;;31.17;27.80;;;12.50;82.40;;;;;;5033495;28;20619;-85
2022/03/19 10:28:08;;;;;;;30.67;27.37;;;13.90;80.70;;;;;;5034746;28;21197;-85
2022/03/19 10:30:40;;;;;;;28.73;23.60;;;14.40;79.30;;;;;;5029858;28;21003;-85
2022/03/19 10:33:09;;;;;;;28.90;25.93;;;14.00;77.60;;;;;;5037035;28;20629;-85
2022/03/19 10:35:37;;;;;;;30.50;27.70;;;13.90;78.00;;;;;;5035427;28;20633;-85
2022/03/19 10:38:17;;;;;;;32.33;28.97;;;14.80;77.20;;;;;;5034819;28;20653;-86
2022/03/19 10:40:47;;;;;;;32.53;29.53;;;16.10;74.70;;;;;;5043568;28;20610;-85
2022/03/19 10:43:17;;;;;;;33.63;30.53;;;16.60;72.60;;;;;;5038057;28;21174;-85
2022/03/19 10:45:47;;;;;;;33.20;30.23;;;16.90;72.10;;;;;;5032850;28;20626;-85
2022/03/19 10:48:18;;;;;;;33.10;29.87;;;18.20;70.00;;;;;;5037952;28;23030;-85
2022/03/19 10:50:45;;;;;;;31.93;29.00;;;18.40;67.10;;;;;;5037881;28;20729;-87
2022/03/19 10:53:13;;;;;;;31.60;28.70;;;18.40;65.30;;;;;;5035077;28;20615;-86
2022/03/19 10:55:40;;;;;;;30.67;28.07;;;18.50;65.00;;;;;;5032088;28;20630;-86
2022/03/19 10:58:09;;;;;;;31.67;28.57;;;18.50;63.30;;;;;;5033638;28;20654;-85
2022/03/19 11:00:36;;;;;;;30.60;28.00;;;17.80;65.10;;;;;;5031690;28;20700;-85
2022/03/19 11:03:20;;;;;;;30.70;27.90;;;16.00;64.90;;;;;;5029717;28;20667;-85
2022/03/19 11:05:49;;;;;;;29.50;26.70;;;15.10;68.00;;;;;;5037275;28;20629;-85
2022/03/19 11:08:18;;;;;;;29.00;25.37;;;14.60;69.30;;;;;;5038223;28;20681;-85
2022/03/19 11:10:46;;;;;;;28.00;23.60;;;16.60;68.40;;;;;;5049124;28;20661;-85
2022/03/19 11:13:16;;;;;;;23.37;20.50;;;17.00;65.40;;;;;;5044667;28;20645;-84
2022/03/19 11:15:44;;;;;;;24.20;21.80;;;18.00;61.60;;;;;;5040930;28;20626;-86
2022/03/19 11:18:12;;;;;;;21.53;19.30;;;17.10;63.50;;;;;;5036343;28;20647;-86
2022/03/19 11:20:40;;;;;;;21.27;19.27;;;19.20;59.00;;;;;;5035083;28;20637;-85
2022/03/19 11:23:09;;;;;;;18.90;17.13;;;20.70;55.10;;;;;;5029385;28;20666;-86
2022/03/19 11:25:42;;;;;;;17.83;16.13;;;20.00;52.00;;;;;;5031197;28;20736;-86
2022/03/19 11:28:10;;;;;;;15.70;14.20;;;20.50;51.20;;;;;;5036332;28;20650;-85
2022/03/19 11:30:40;;;;;;;18.47;15.10;;;17.80;48.80;;;;;;5035479;28;20641;-85
2022/03/19 11:33:12;;;;;;;16.63;15.13;;;15.50;52.90;;;;;;5038326;28;20629;-86
2022/03/19 11:35:42;;;;;;;15.73;14.10;;;15.10;53.10;;;;;;5041157;28;20710;-85
2022/03/19 11:38:14;;;;;;;15.03;13.63;;;15.80;55.10;;;;;;5035684;28;20646;-86
2022/03/19 11:40:46;;;;;;;16.93;15.33;;;19.10;54.00;;;;;;5035943;28;20613;-89
2022/03/19 11:43:18;;;;;;;15.70;14.30;;;21.50;50.40;;;;;;5034830;28;20698;-87
2022/03/19 11:45:56;;;;;;;16.53;15.10;;;20.90;48.80;;;;;;5037362;28;20646;-86
2022/03/19 11:48:47;;;;;;;16.60;15.20;;;21.60;47.60;;;;;;5036659;28;20654;-85
2022/03/19 11:51:16;;;;;;;16.30;14.90;;;21.90;46.70;;;;;;5035593;28;21064;-86
2022/03/19 11:53:57;;;;;;;17.23;15.73;;;22.90;46.60;;;;;;5035503;28;20688;-85
2022/03/19 11:56:25;;;;;;;17.77;16.27;;;22.60;45.40;;;;;;5031005;28;21394;-88
2022/03/19 11:58:52;;;;;;;18.60;17.00;;;22.30;44.40;;;;;;5034860;28;20670;-86
2022/03/19 12:01:39;;;;;;;18.07;16.43;;;21.00;46.50;;;;;;5031329;28;20654;-86
2022/03/19 12:04:13;;;;;;;17.47;16.03;;;22.10;46.10;;;;;;5037840;28;21294;-85
2022/03/19 12:06:51;;;;;;;15.53;14.33;;;21.90;45.80;;;;;;5034874;28;21106;-85
2022/03/19 12:09:18;;;;;;;16.63;15.23;;;21.60;45.40;;;;;;5035802;28;20658;-85
2022/03/19 12:12:07;;;;;;;17.63;16.23;;;21.60;44.60;;;;;;5030581;28;20627;-87
2022/03/19 12:14:34;;;;;;;16.43;15.03;;;22.60;44.60;;;;;;5033264;28;20650;-87
2022/03/19 12:17:16;;;;;;;14.83;13.63;;;22.60;43.40;;;;;;5035110;28;20689;-86
2022/03/19 12:19:53;;;;;;;15.13;13.73;;;21.90;44.40;;;;;;5029849;28;20654;-86
2022/03/19 12:22:30;;;;;;;14.00;12.80;;;23.30;42.40;;;;;;5037510;28;20658;-83
2022/03/19 12:25:07;;;;;;;15.00;13.80;;;23.10;41.80;;;;;;5028977;28;20623;-88
2022/03/19 12:27:34;;;;;;;14.60;13.30;;;22.30;42.30;;;;;;5037674;28;20652;-85
2022/03/19 12:30:01;;;;;;;15.67;14.37;;;23.10;41.10;;;;;;5052502;28;21278;-85
2022/03/19 12:32:28;;;;;;;16.07;14.73;;;22.30;41.20;;;;;;5017541;28;21225;-85
2022/03/19 12:34:59;;;;;;;14.40;13.10;;;23.00;42.40;;;;;;5037354;28;21027;-86
2022/03/19 12:37:27;;;;;;;13.80;12.50;;;22.80;40.00;;;;;;5030609;28;20641;-85
2022/03/19 12:39:59;;;;;;;12.97;11.97;;;22.70;39.50;;;;;;5033196;28;20613;-86
2022/03/19 12:42:31;;;;;;;13.60;12.20;;;23.90;38.10;;;;;;5037335;28;21240;-85
2022/03/19 12:44:59;;;;;;;12.00;11.10;;;22.50;37.60;;;;;;5030771;28;20642;-85
2022/03/19 12:47:27;;;;;;;14.33;13.13;;;22.90;38.90;;;;;;5034271;28;20733;-86
2022/03/19 12:49:55;;;;;;;14.50;13.17;;;22.90;38.20;;;;;;5034249;28;20639;-85
2022/03/19 12:52:22;;;;;;;13.20;12.20;;;22.70;38.90;;;;;;5033364;28;20666;-86